sensor_id;sensor_type;location;lat;lon;timestamp;temperature;humidity
30889;DHT22;51092;50.874;7.024;2023-06-14T00:00:48;19.40;58.40
30889;DHT22;51092;50.874;7.024;2023-06-14T00:01:50;19.30;58.40
30889;DHT22;51092;50.874;7.024;2023-06-14T00:02:52;19.20;58.40
30889;DHT22;51092;50.874;7.024;2023-06-14T00:03:57;19.20;58.40
30889;DHT22;51092;50.874;7.024;2023-06-14T00:05:00;19.10;58.50
30889;DHT22;51092;50.874;7.024;2023-06-14T00:06:02;19.00;58.60
30889;DHT22;51092;50.874;7.024;2023-06-14T00:07:06;19.00;58.60
30889;DHT22;51092;50.874;7.024;2023-06-14T00:08:10;19.00;58.60
30889;DHT22;51092;50.874;7.024;2023-06-14T00:09:13;19.00;58.50
30889;DHT22;51092;50.874;7.024;2023-06-14T00:10:14;19.00;58.50
30889;DHT22;51092;50.874;7.024;2023-06-14T00:11:17;18.90;58.60
30889;DHT22;51092;50.874;7.024;2023-06-14T00:12:19;18.90;58.60
30889;DHT22;51092;50.874;7.024;2023-06-14T00:13:21;18.80;58.60
30889;DHT22;51092;50.874;7.024;2023-06-14T00:14:23;18.80;58.60
30889;DHT22;51092;50.874;7.024;2023-06-14T00:15:26;18.70;58.70
30889;DHT22;51092;50.874;7.024;2023-06-14T00:16:27;18.70;58.70
30889;DHT22;51092;50.874;7.024;2023-06-14T00:17:30;18.70;58.70
30889;DHT22;51092;50.874;7.024;2023-06-14T00:18:32;18.70;58.70
30889;DHT22;51092;50.874;7.024;2023-06-14T00:19:35;18.60;58.80
30889;DHT22;51092;50.874;7.024;2023-06-14T00:20:37;18.60;58.80
30889;DHT22;51092;50.874;7.024;2023-06-14T00:21:40;18.50;58.80
30889;DHT22;51092;50.874;7.024;2023-06-14T00:22:44;18.40;58.90
30889;DHT22;51092;50.874;7.024;2023-06-14T00:23:47;18.40;58.90
30889;DHT22;51092;50.874;7.024;2023-06-14T00:24:49;18.30;59.00
30889;DHT22;51092;50.874;7.024;2023-06-14T00:25:51;18.30;59.10
30889;DHT22;51092;50.874;7.024;2023-06-14T00:26:53;18.20;59.10
30889;DHT22;51092;50.874;7.024;2023-06-14T00:27:57;18.10;59.20
30889;DHT22;51092;50.874;7.024;2023-06-14T00:28:58;18.10;59.20
30889;DHT22;51092;50.874;7.024;2023-06-14T00:30:01;18.00;59.20
30889;DHT22;51092;50.874;7.024;2023-06-14T00:31:03;18.00;59.30
30889;DHT22;51092;50.874;7.024;2023-06-14T00:32:07;18.00;59.30
30889;DHT22;51092;50.874;7.024;2023-06-14T00:33:08;18.00;59.30
30889;DHT22;51092;50.874;7.024;2023-06-14T00:34:11;18.00;59.30
30889;DHT22;51092;50.874;7.024;2023-06-14T00:35:12;18.00;59.30
30889;DHT22;51092;50.874;7.024;2023-06-14T00:36:15;17.90;59.40
30889;DHT22;51092;50.874;7.024;2023-06-14T00:37:16;17.90;59.50
30889;DHT22;51092;50.874;7.024;2023-06-14T00:38:20;17.80;59.60
30889;DHT22;51092;50.874;7.024;2023-06-14T00:39:22;17.70;59.60
30889;DHT22;51092;50.874;7.024;2023-06-14T00:40:24;17.70;59.60
30889;DHT22;51092;50.874;7.024;2023-06-14T00:41:26;17.70;59.60
30889;DHT22;51092;50.874;7.024;2023-06-14T00:42:29;17.60;59.70
30889;DHT22;51092;50.874;7.024;2023-06-14T00:43:30;17.60;59.70
30889;DHT22;51092;50.874;7.024;2023-06-14T00:44:33;17.60;59.70
30889;DHT22;51092;50.874;7.024;2023-06-14T00:45:34;17.60;59.70
30889;DHT22;51092;50.874;7.024;2023-06-14T00:46:37;17.60;59.70
30889;DHT22;51092;50.874;7.024;2023-06-14T00:47:40;17.60;59.60
30889;DHT22;51092;50.874;7.024;2023-06-14T00:48:42;17.60;59.60
30889;DHT22;51092;50.874;7.024;2023-06-14T00:49:45;17.60;59.60
30889;DHT22;51092;50.874;7.024;2023-06-14T00:50:48;17.60;59.70
30889;DHT22;51092;50.874;7.024;2023-06-14T00:51:49;17.60;59.70
30889;DHT22;51092;50.874;7.024;2023-06-14T00:52:52;17.60;59.80
30889;DHT22;51092;50.874;7.024;2023-06-14T00:53:55;17.60;60.00
30889;DHT22;51092;50.874;7.024;2023-06-14T00:54:57;17.50;59.90
30889;DHT22;51092;50.874;7.024;2023-06-14T00:55:59;17.50;59.90
30889;DHT22;51092;50.874;7.024;2023-06-14T00:57:02;17.40;60.20
30889;DHT22;51092;50.874;7.024;2023-06-14T00:58:04;17.40;60.00
30889;DHT22;51092;50.874;7.024;2023-06-14T00:59:07;17.40;60.10
30889;DHT22;51092;50.874;7.024;2023-06-14T01:00:09;17.40;59.90
30889;DHT22;51092;50.874;7.024;2023-06-14T01:01:13;17.40;60.70
30889;DHT22;51092;50.874;7.024;2023-06-14T01:02:16;17.30;60.80
30889;DHT22;51092;50.874;7.024;2023-06-14T01:03:19;17.30;60.70
30889;DHT22;51092;50.874;7.024;2023-06-14T01:04:23;17.30;60.80
30889;DHT22;51092;50.874;7.024;2023-06-14T01:05:26;17.20;60.70
30889;DHT22;51092;50.874;7.024;2023-06-14T01:06:32;17.20;60.70
30889;DHT22;51092;50.874;7.024;2023-06-14T01:07:43;17.20;60.60
30889;DHT22;51092;50.874;7.024;2023-06-14T01:08:53;17.20;60.50
30889;DHT22;51092;50.874;7.024;2023-06-14T01:10:12;17.20;61.40
30889;DHT22;51092;50.874;7.024;2023-06-14T01:11:21;17.30;61.40
30889;DHT22;51092;50.874;7.024;2023-06-14T01:12:29;17.30;61.30
30889;DHT22;51092;50.874;7.024;2023-06-14T01:13:33;17.40;61.30
30889;DHT22;51092;50.874;7.024;2023-06-14T01:14:36;17.40;62.20
30889;DHT22;51092;50.874;7.024;2023-06-14T01:15:40;17.30;62.10
30889;DHT22;51092;50.874;7.024;2023-06-14T01:16:43;17.40;62.00
30889;DHT22;51092;50.874;7.024;2023-06-14T01:17:49;17.40;62.80
30889;DHT22;51092;50.874;7.024;2023-06-14T01:18:53;17.40;63.10
30889;DHT22;51092;50.874;7.024;2023-06-14T01:19:58;17.50;62.90
30889;DHT22;51092;50.874;7.024;2023-06-14T01:21:01;17.50;63.60
30889;DHT22;51092;50.874;7.024;2023-06-14T01:22:06;17.50;63.70
30889;DHT22;51092;50.874;7.024;2023-06-14T01:23:11;17.40;64.30
30889;DHT22;51092;50.874;7.024;2023-06-14T01:24:13;17.40;63.50
30889;DHT22;51092;50.874;7.024;2023-06-14T01:25:16;17.30;62.90
30889;DHT22;51092;50.874;7.024;2023-06-14T01:26:18;17.30;62.60
30889;DHT22;51092;50.874;7.024;2023-06-14T01:27:21;17.20;62.90
30889;DHT22;51092;50.874;7.024;2023-06-14T01:28:25;17.30;61.80
30889;DHT22;51092;50.874;7.024;2023-06-14T01:29:33;17.30;61.40
30889;DHT22;51092;50.874;7.024;2023-06-14T01:30:38;17.20;60.80
30889;DHT22;51092;50.874;7.024;2023-06-14T01:31:46;17.20;60.40
30889;DHT22;51092;50.874;7.024;2023-06-14T01:32:49;17.20;60.80
30889;DHT22;51092;50.874;7.024;2023-06-14T01:33:52;17.10;60.90
30889;DHT22;51092;50.874;7.024;2023-06-14T01:34:54;17.20;60.50
30889;DHT22;51092;50.874;7.024;2023-06-14T01:35:57;17.30;59.90
30889;DHT22;51092;50.874;7.024;2023-06-14T01:37:00;17.20;60.00
30889;DHT22;51092;50.874;7.024;2023-06-14T01:38:04;17.10;60.20
30889;DHT22;51092;50.874;7.024;2023-06-14T01:39:09;17.10;60.40
30889;DHT22;51092;50.874;7.024;2023-06-14T01:40:15;17.10;60.20
30889;DHT22;51092;50.874;7.024;2023-06-14T01:41:17;17.20;60.00
30889;DHT22;51092;50.874;7.024;2023-06-14T01:42:20;17.20;59.90
30889;DHT22;51092;50.874;7.024;2023-06-14T01:43:23;17.10;60.10
30889;DHT22;51092;50.874;7.024;2023-06-14T01:44:27;17.10;60.00
30889;DHT22;51092;50.874;7.024;2023-06-14T01:45:30;17.00;60.10
30889;DHT22;51092;50.874;7.024;2023-06-14T01:46:33;17.00;60.20
30889;DHT22;51092;50.874;7.024;2023-06-14T01:47:34;16.90;60.40
30889;DHT22;51092;50.874;7.024;2023-06-14T01:48:37;16.90;60.30
30889;DHT22;51092;50.874;7.024;2023-06-14T01:49:39;16.90;60.30
30889;DHT22;51092;50.874;7.024;2023-06-14T01:50:42;16.90;60.10
30889;DHT22;51092;50.874;7.024;2023-06-14T01:51:43;16.90;60.10
30889;DHT22;51092;50.874;7.024;2023-06-14T01:52:46;16.90;60.10
30889;DHT22;51092;50.874;7.024;2023-06-14T01:53:47;16.90;60.50
30889;DHT22;51092;50.874;7.024;2023-06-14T01:54:51;16.90;60.50
30889;DHT22;51092;50.874;7.024;2023-06-14T01:55:53;16.90;60.70
30889;DHT22;51092;50.874;7.024;2023-06-14T01:56:56;16.90;60.50
30889;DHT22;51092;50.874;7.024;2023-06-14T01:57:57;16.90;60.50
30889;DHT22;51092;50.874;7.024;2023-06-14T01:59:00;16.90;60.40
30889;DHT22;51092;50.874;7.024;2023-06-14T02:00:02;16.90;60.30
30889;DHT22;51092;50.874;7.024;2023-06-14T02:01:05;16.80;60.50
30889;DHT22;51092;50.874;7.024;2023-06-14T02:02:08;16.80;60.70
30889;DHT22;51092;50.874;7.024;2023-06-14T02:03:10;16.80;62.10
30889;DHT22;51092;50.874;7.024;2023-06-14T02:04:13;16.70;63.10
30889;DHT22;51092;50.874;7.024;2023-06-14T02:05:14;16.70;63.50
30889;DHT22;51092;50.874;7.024;2023-06-14T02:06:20;16.60;64.10
30889;DHT22;51092;50.874;7.024;2023-06-14T02:07:21;16.50;64.60
30889;DHT22;51092;50.874;7.024;2023-06-14T02:08:24;16.50;64.70
30889;DHT22;51092;50.874;7.024;2023-06-14T02:09:25;16.50;64.70
30889;DHT22;51092;50.874;7.024;2023-06-14T02:10:29;16.40;65.30
30889;DHT22;51092;50.874;7.024;2023-06-14T02:11:31;16.40;65.50
30889;DHT22;51092;50.874;7.024;2023-06-14T02:12:33;16.30;65.80
30889;DHT22;51092;50.874;7.024;2023-06-14T02:13:35;16.30;66.00
30889;DHT22;51092;50.874;7.024;2023-06-14T02:14:37;16.30;66.30
30889;DHT22;51092;50.874;7.024;2023-06-14T02:15:39;16.20;66.60
30889;DHT22;51092;50.874;7.024;2023-06-14T02:16:44;16.20;66.90
30889;DHT22;51092;50.874;7.024;2023-06-14T02:17:49;16.20;67.00
30889;DHT22;51092;50.874;7.024;2023-06-14T02:18:52;16.20;67.10
30889;DHT22;51092;50.874;7.024;2023-06-14T02:19:54;16.20;67.60
30889;DHT22;51092;50.874;7.024;2023-06-14T02:20:56;16.20;68.30
30889;DHT22;51092;50.874;7.024;2023-06-14T02:21:58;16.10;68.80
30889;DHT22;51092;50.874;7.024;2023-06-14T02:23:01;16.10;69.10
30889;DHT22;51092;50.874;7.024;2023-06-14T02:24:03;16.00;69.60
30889;DHT22;51092;50.874;7.024;2023-06-14T02:25:06;16.10;69.70
30889;DHT22;51092;50.874;7.024;2023-06-14T02:26:09;16.00;70.30
30889;DHT22;51092;50.874;7.024;2023-06-14T02:27:12;16.00;70.40
30889;DHT22;51092;50.874;7.024;2023-06-14T02:28:14;16.00;70.70
30889;DHT22;51092;50.874;7.024;2023-06-14T02:29:16;15.90;71.10
30889;DHT22;51092;50.874;7.024;2023-06-14T02:30:19;15.90;71.50
30889;DHT22;51092;50.874;7.024;2023-06-14T02:31:22;15.90;71.70
30889;DHT22;51092;50.874;7.024;2023-06-14T02:32:23;15.90;71.80
30889;DHT22;51092;50.874;7.024;2023-06-14T02:33:27;15.90;71.80
30889;DHT22;51092;50.874;7.024;2023-06-14T02:34:29;15.90;71.60
30889;DHT22;51092;50.874;7.024;2023-06-14T02:35:32;15.90;71.40
30889;DHT22;51092;50.874;7.024;2023-06-14T02:36:33;15.90;71.10
30889;DHT22;51092;50.874;7.024;2023-06-14T02:37:36;15.90;70.90
30889;DHT22;51092;50.874;7.024;2023-06-14T02:38:37;16.00;70.80
30889;DHT22;51092;50.874;7.024;2023-06-14T02:39:40;15.90;71.20
30889;DHT22;51092;50.874;7.024;2023-06-14T02:40:41;15.90;71.40
30889;DHT22;51092;50.874;7.024;2023-06-14T02:41:45;15.90;72.00
30889;DHT22;51092;50.874;7.024;2023-06-14T02:42:47;15.80;72.90
30889;DHT22;51092;50.874;7.024;2023-06-14T02:43:49;15.80;73.10
30889;DHT22;51092;50.874;7.024;2023-06-14T02:44:51;15.80;73.60
30889;DHT22;51092;50.874;7.024;2023-06-14T02:45:53;15.70;74.80
30889;DHT22;51092;50.874;7.024;2023-06-14T02:46:55;15.70;75.30
30889;DHT22;51092;50.874;7.024;2023-06-14T02:47:59;15.60;76.20
30889;DHT22;51092;50.874;7.024;2023-06-14T02:49:01;15.60;76.80
30889;DHT22;51092;50.874;7.024;2023-06-14T02:50:04;15.60;77.60
30889;DHT22;51092;50.874;7.024;2023-06-14T02:51:06;15.50;77.90
30889;DHT22;51092;50.874;7.024;2023-06-14T02:52:10;15.50;78.60
30889;DHT22;51092;50.874;7.024;2023-06-14T02:53:12;15.40;79.30
30889;DHT22;51092;50.874;7.024;2023-06-14T02:54:14;15.40;79.50
30889;DHT22;51092;50.874;7.024;2023-06-14T02:55:16;15.40;79.10
30889;DHT22;51092;50.874;7.024;2023-06-14T02:56:18;15.40;79.10
30889;DHT22;51092;50.874;7.024;2023-06-14T02:57:22;15.30;79.30
30889;DHT22;51092;50.874;7.024;2023-06-14T02:58:24;15.30;79.40
30889;DHT22;51092;50.874;7.024;2023-06-14T02:59:26;15.30;79.70
30889;DHT22;51092;50.874;7.024;2023-06-14T03:00:28;15.20;79.60
30889;DHT22;51092;50.874;7.024;2023-06-14T03:01:32;15.20;79.60
30889;DHT22;51092;50.874;7.024;2023-06-14T03:02:35;15.30;79.80
30889;DHT22;51092;50.874;7.024;2023-06-14T03:03:38;15.20;80.00
30889;DHT22;51092;50.874;7.024;2023-06-14T03:04:39;15.20;79.30
30889;DHT22;51092;50.874;7.024;2023-06-14T03:05:47;15.20;78.90
30889;DHT22;51092;50.874;7.024;2023-06-14T03:06:50;15.20;79.50
30889;DHT22;51092;50.874;7.024;2023-06-14T03:07:52;15.20;79.80
30889;DHT22;51092;50.874;7.024;2023-06-14T03:08:55;15.20;79.80
30889;DHT22;51092;50.874;7.024;2023-06-14T03:09:58;15.20;79.90
30889;DHT22;51092;50.874;7.024;2023-06-14T03:10:59;15.20;79.70
30889;DHT22;51092;50.874;7.024;2023-06-14T03:12:03;15.10;79.60
30889;DHT22;51092;50.874;7.024;2023-06-14T03:13:06;15.10;79.40
30889;DHT22;51092;50.874;7.024;2023-06-14T03:14:09;15.10;79.10
30889;DHT22;51092;50.874;7.024;2023-06-14T03:15:12;15.10;78.80
30889;DHT22;51092;50.874;7.024;2023-06-14T03:16:15;15.10;78.70
30889;DHT22;51092;50.874;7.024;2023-06-14T03:17:21;15.20;78.70
30889;DHT22;51092;50.874;7.024;2023-06-14T03:18:25;15.20;78.70
30889;DHT22;51092;50.874;7.024;2023-06-14T03:19:28;15.20;79.20
30889;DHT22;51092;50.874;7.024;2023-06-14T03:20:30;15.20;79.20
30889;DHT22;51092;50.874;7.024;2023-06-14T03:21:34;15.20;79.20
30889;DHT22;51092;50.874;7.024;2023-06-14T03:22:36;15.20;78.80
30889;DHT22;51092;50.874;7.024;2023-06-14T03:23:39;15.20;79.10
30889;DHT22;51092;50.874;7.024;2023-06-14T03:24:42;15.30;79.50
30889;DHT22;51092;50.874;7.024;2023-06-14T03:25:46;15.40;79.50
30889;DHT22;51092;50.874;7.024;2023-06-14T03:26:48;15.40;79.00
30889;DHT22;51092;50.874;7.024;2023-06-14T03:27:50;15.40;78.70
30889;DHT22;51092;50.874;7.024;2023-06-14T03:28:54;15.40;78.40
30889;DHT22;51092;50.874;7.024;2023-06-14T03:29:55;15.40;78.20
30889;DHT22;51092;50.874;7.024;2023-06-14T03:30:58;15.40;78.30
30889;DHT22;51092;50.874;7.024;2023-06-14T03:32:00;15.40;78.70
30889;DHT22;51092;50.874;7.024;2023-06-14T03:33:03;15.40;78.70
30889;DHT22;51092;50.874;7.024;2023-06-14T03:34:05;15.40;78.70
30889;DHT22;51092;50.874;7.024;2023-06-14T03:35:08;15.40;78.60
30889;DHT22;51092;50.874;7.024;2023-06-14T03:36:11;15.40;78.80
30889;DHT22;51092;50.874;7.024;2023-06-14T03:37:14;15.40;79.00
30889;DHT22;51092;50.874;7.024;2023-06-14T03:38:15;15.40;79.00
30889;DHT22;51092;50.874;7.024;2023-06-14T03:39:18;15.40;78.90
30889;DHT22;51092;50.874;7.024;2023-06-14T03:40:21;15.40;79.00
30889;DHT22;51092;50.874;7.024;2023-06-14T03:41:23;15.40;78.90
30889;DHT22;51092;50.874;7.024;2023-06-14T03:42:25;15.40;79.00
30889;DHT22;51092;50.874;7.024;2023-06-14T03:43:27;15.40;79.10
30889;DHT22;51092;50.874;7.024;2023-06-14T03:44:30;15.40;79.00
30889;DHT22;51092;50.874;7.024;2023-06-14T03:45:33;15.50;78.90
30889;DHT22;51092;50.874;7.024;2023-06-14T03:46:34;15.50;78.90
30889;DHT22;51092;50.874;7.024;2023-06-14T03:47:37;15.50;78.90
30889;DHT22;51092;50.874;7.024;2023-06-14T03:48:38;15.50;78.90
30889;DHT22;51092;50.874;7.024;2023-06-14T03:49:41;15.60;79.30
30889;DHT22;51092;50.874;7.024;2023-06-14T03:50:42;15.50;80.10
30889;DHT22;51092;50.874;7.024;2023-06-14T03:51:45;15.50;80.60
30889;DHT22;51092;50.874;7.024;2023-06-14T03:52:52;15.40;81.40
30889;DHT22;51092;50.874;7.024;2023-06-14T03:53:54;15.40;82.10
30889;DHT22;51092;50.874;7.024;2023-06-14T03:54:57;15.30;82.40
30889;DHT22;51092;50.874;7.024;2023-06-14T03:56:01;15.30;82.90
30889;DHT22;51092;50.874;7.024;2023-06-14T03:57:03;15.30;83.50
30889;DHT22;51092;50.874;7.024;2023-06-14T03:58:06;15.30;84.10
30889;DHT22;51092;50.874;7.024;2023-06-14T03:59:07;15.30;84.30
30889;DHT22;51092;50.874;7.024;2023-06-14T04:00:12;15.30;84.40
30889;DHT22;51092;50.874;7.024;2023-06-14T04:01:14;15.30;84.60
30889;DHT22;51092;50.874;7.024;2023-06-14T04:02:16;15.20;85.00
30889;DHT22;51092;50.874;7.024;2023-06-14T04:03:19;15.20;85.50
30889;DHT22;51092;50.874;7.024;2023-06-14T04:04:29;15.20;85.70
30889;DHT22;51092;50.874;7.024;2023-06-14T04:05:31;15.20;85.90
30889;DHT22;51092;50.874;7.024;2023-06-14T04:06:33;15.20;86.00
30889;DHT22;51092;50.874;7.024;2023-06-14T04:07:36;15.20;86.10
30889;DHT22;51092;50.874;7.024;2023-06-14T04:08:41;15.30;85.80
30889;DHT22;51092;50.874;7.024;2023-06-14T04:09:42;15.30;85.90
30889;DHT22;51092;50.874;7.024;2023-06-14T04:10:45;15.30;85.30
30889;DHT22;51092;50.874;7.024;2023-06-14T04:11:45;15.30;85.20
30889;DHT22;51092;50.874;7.024;2023-06-14T04:12:47;15.30;84.50
30889;DHT22;51092;50.874;7.024;2023-06-14T04:13:48;15.30;84.90
30889;DHT22;51092;50.874;7.024;2023-06-14T04:14:50;15.30;84.80
30889;DHT22;51092;50.874;7.024;2023-06-14T04:15:53;15.40;84.20
30889;DHT22;51092;50.874;7.024;2023-06-14T04:16:58;15.40;84.10
30889;DHT22;51092;50.874;7.024;2023-06-14T04:18:00;15.40;84.20
30889;DHT22;51092;50.874;7.024;2023-06-14T04:19:03;15.40;84.10
30889;DHT22;51092;50.874;7.024;2023-06-14T04:20:06;15.40;84.20
30889;DHT22;51092;50.874;7.024;2023-06-14T04:21:11;15.40;84.60
30889;DHT22;51092;50.874;7.024;2023-06-14T04:22:13;15.40;84.40
30889;DHT22;51092;50.874;7.024;2023-06-14T04:23:17;15.50;83.80
30889;DHT22;51092;50.874;7.024;2023-06-14T04:24:19;15.50;83.60
30889;DHT22;51092;50.874;7.024;2023-06-14T04:25:22;15.50;83.30
30889;DHT22;51092;50.874;7.024;2023-06-14T04:26:26;15.50;83.40
30889;DHT22;51092;50.874;7.024;2023-06-14T04:27:30;15.60;83.00
30889;DHT22;51092;50.874;7.024;2023-06-14T04:28:35;15.70;81.80
30889;DHT22;51092;50.874;7.024;2023-06-14T04:29:41;15.70;81.60
30889;DHT22;51092;50.874;7.024;2023-06-14T04:30:45;15.80;81.00
30889;DHT22;51092;50.874;7.024;2023-06-14T04:31:49;15.80;81.30
30889;DHT22;51092;50.874;7.024;2023-06-14T04:32:52;15.80;81.50
30889;DHT22;51092;50.874;7.024;2023-06-14T04:33:56;15.80;81.00
30889;DHT22;51092;50.874;7.024;2023-06-14T04:35:00;15.90;80.70
30889;DHT22;51092;50.874;7.024;2023-06-14T04:36:05;15.90;81.20
30889;DHT22;51092;50.874;7.024;2023-06-14T04:37:08;15.90;80.50
30889;DHT22;51092;50.874;7.024;2023-06-14T04:38:10;15.90;80.50
30889;DHT22;51092;50.874;7.024;2023-06-14T04:39:12;16.00;80.50
30889;DHT22;51092;50.874;7.024;2023-06-14T04:40:13;16.00;79.70
30889;DHT22;51092;50.874;7.024;2023-06-14T04:41:16;16.10;79.20
30889;DHT22;51092;50.874;7.024;2023-06-14T04:42:19;16.10;79.10
30889;DHT22;51092;50.874;7.024;2023-06-14T04:43:22;16.20;78.50
30889;DHT22;51092;50.874;7.024;2023-06-14T04:44:27;16.30;78.30
30889;DHT22;51092;50.874;7.024;2023-06-14T04:45:32;16.30;78.00
30889;DHT22;51092;50.874;7.024;2023-06-14T04:46:33;16.40;78.10
30889;DHT22;51092;50.874;7.024;2023-06-14T04:47:47;16.40;78.10
30889;DHT22;51092;50.874;7.024;2023-06-14T04:48:48;16.50;77.50
30889;DHT22;51092;50.874;7.024;2023-06-14T04:49:51;16.50;76.60
30889;DHT22;51092;50.874;7.024;2023-06-14T04:50:54;16.50;76.70
30889;DHT22;51092;50.874;7.024;2023-06-14T04:51:57;16.60;76.10
30889;DHT22;51092;50.874;7.024;2023-06-14T04:53:01;16.60;75.70
30889;DHT22;51092;50.874;7.024;2023-06-14T04:54:04;16.60;75.10
30889;DHT22;51092;50.874;7.024;2023-06-14T04:55:06;16.60;74.50
30889;DHT22;51092;50.874;7.024;2023-06-14T04:56:09;16.70;73.50
30889;DHT22;51092;50.874;7.024;2023-06-14T04:57:11;16.80;72.00
30889;DHT22;51092;50.874;7.024;2023-06-14T04:58:14;16.90;71.00
30889;DHT22;51092;50.874;7.024;2023-06-14T04:59:16;16.90;69.90
30889;DHT22;51092;50.874;7.024;2023-06-14T05:00:20;17.00;69.20
30889;DHT22;51092;50.874;7.024;2023-06-14T05:01:24;17.00;69.00
30889;DHT22;51092;50.874;7.024;2023-06-14T05:02:25;17.10;68.30
30889;DHT22;51092;50.874;7.024;2023-06-14T05:03:29;17.10;67.60
30889;DHT22;51092;50.874;7.024;2023-06-14T05:04:31;17.10;66.90
30889;DHT22;51092;50.874;7.024;2023-06-14T05:05:33;17.20;65.90
30889;DHT22;51092;50.874;7.024;2023-06-14T05:06:35;17.30;64.30
30889;DHT22;51092;50.874;7.024;2023-06-14T05:07:38;17.30;63.70
30889;DHT22;51092;50.874;7.024;2023-06-14T05:08:40;17.30;62.10
30889;DHT22;51092;50.874;7.024;2023-06-14T05:09:41;17.30;61.50
30889;DHT22;51092;50.874;7.024;2023-06-14T05:10:44;17.40;61.10
30889;DHT22;51092;50.874;7.024;2023-06-14T05:11:45;17.50;60.90
30889;DHT22;51092;50.874;7.024;2023-06-14T05:12:48;17.50;60.70
30889;DHT22;51092;50.874;7.024;2023-06-14T05:13:50;17.60;60.30
30889;DHT22;51092;50.874;7.024;2023-06-14T05:14:52;17.60;60.20
30889;DHT22;51092;50.874;7.024;2023-06-14T05:15:54;17.70;59.90
30889;DHT22;51092;50.874;7.024;2023-06-14T05:16:57;17.70;59.90
30889;DHT22;51092;50.874;7.024;2023-06-14T05:17:58;17.70;59.90
30889;DHT22;51092;50.874;7.024;2023-06-14T05:19:02;17.70;59.90
30889;DHT22;51092;50.874;7.024;2023-06-14T05:20:06;17.70;59.90
30889;DHT22;51092;50.874;7.024;2023-06-14T05:21:11;17.80;59.90
30889;DHT22;51092;50.874;7.024;2023-06-14T05:22:12;17.70;60.20
30889;DHT22;51092;50.874;7.024;2023-06-14T05:23:15;17.70;60.40
30889;DHT22;51092;50.874;7.024;2023-06-14T05:24:17;17.80;60.10
30889;DHT22;51092;50.874;7.024;2023-06-14T05:25:19;17.80;59.90
30889;DHT22;51092;50.874;7.024;2023-06-14T05:26:21;17.90;59.70
30889;DHT22;51092;50.874;7.024;2023-06-14T05:27:26;17.90;59.70
30889;DHT22;51092;50.874;7.024;2023-06-14T05:28:27;17.90;59.70
30889;DHT22;51092;50.874;7.024;2023-06-14T05:29:30;17.90;59.70
30889;DHT22;51092;50.874;7.024;2023-06-14T05:30:31;18.00;59.60
30889;DHT22;51092;50.874;7.024;2023-06-14T05:31:34;18.00;59.60
30889;DHT22;51092;50.874;7.024;2023-06-14T05:32:36;18.10;59.60
30889;DHT22;51092;50.874;7.024;2023-06-14T05:33:38;18.10;59.50
30889;DHT22;51092;50.874;7.024;2023-06-14T05:34:43;18.10;59.50
30889;DHT22;51092;50.874;7.024;2023-06-14T05:35:44;18.10;59.60
30889;DHT22;51092;50.874;7.024;2023-06-14T05:36:48;18.20;59.50
30889;DHT22;51092;50.874;7.024;2023-06-14T05:37:49;18.20;59.50
30889;DHT22;51092;50.874;7.024;2023-06-14T05:38:52;18.30;59.50
30889;DHT22;51092;50.874;7.024;2023-06-14T05:39:58;18.30;59.50
30889;DHT22;51092;50.874;7.024;2023-06-14T05:41:01;18.40;59.40
30889;DHT22;51092;50.874;7.024;2023-06-14T05:42:02;18.40;59.30
30889;DHT22;51092;50.874;7.024;2023-06-14T05:43:05;18.40;59.30
30889;DHT22;51092;50.874;7.024;2023-06-14T05:44:08;18.50;59.30
30889;DHT22;51092;50.874;7.024;2023-06-14T05:45:11;18.50;59.20
30889;DHT22;51092;50.874;7.024;2023-06-14T05:46:13;18.50;59.20
30889;DHT22;51092;50.874;7.024;2023-06-14T05:47:16;18.50;59.20
30889;DHT22;51092;50.874;7.024;2023-06-14T05:48:17;18.60;59.20
30889;DHT22;51092;50.874;7.024;2023-06-14T05:49:20;18.60;59.20
30889;DHT22;51092;50.874;7.024;2023-06-14T05:50:22;18.70;59.10
30889;DHT22;51092;50.874;7.024;2023-06-14T05:51:25;18.70;59.10
30889;DHT22;51092;50.874;7.024;2023-06-14T05:52:27;18.70;59.10
30889;DHT22;51092;50.874;7.024;2023-06-14T05:53:30;18.70;59.10
30889;DHT22;51092;50.874;7.024;2023-06-14T05:54:32;18.60;59.10
30889;DHT22;51092;50.874;7.024;2023-06-14T05:55:35;18.60;59.10
30889;DHT22;51092;50.874;7.024;2023-06-14T05:56:37;18.60;59.10
30889;DHT22;51092;50.874;7.024;2023-06-14T05:57:39;18.60;59.10
30889;DHT22;51092;50.874;7.024;2023-06-14T05:58:42;18.70;59.10
30889;DHT22;51092;50.874;7.024;2023-06-14T05:59:44;18.60;59.10
30889;DHT22;51092;50.874;7.024;2023-06-14T06:00:46;18.70;59.10
30889;DHT22;51092;50.874;7.024;2023-06-14T06:01:48;18.70;59.10
30889;DHT22;51092;50.874;7.024;2023-06-14T06:02:50;18.70;59.10
30889;DHT22;51092;50.874;7.024;2023-06-14T06:03:52;18.70;59.10
30889;DHT22;51092;50.874;7.024;2023-06-14T06:04:54;18.80;59.00
30889;DHT22;51092;50.874;7.024;2023-06-14T06:05:58;18.80;59.00
30889;DHT22;51092;50.874;7.024;2023-06-14T06:07:01;18.80;59.00
30889;DHT22;51092;50.874;7.024;2023-06-14T06:08:02;18.80;59.00
30889;DHT22;51092;50.874;7.024;2023-06-14T06:09:05;18.80;59.00
30889;DHT22;51092;50.874;7.024;2023-06-14T06:10:08;18.80;59.00
30889;DHT22;51092;50.874;7.024;2023-06-14T06:11:11;18.90;59.00
30889;DHT22;51092;50.874;7.024;2023-06-14T06:12:13;18.90;58.90
30889;DHT22;51092;50.874;7.024;2023-06-14T06:13:15;19.00;58.90
30889;DHT22;51092;50.874;7.024;2023-06-14T06:14:17;19.00;58.80
30889;DHT22;51092;50.874;7.024;2023-06-14T06:15:20;19.00;58.80
30889;DHT22;51092;50.874;7.024;2023-06-14T06:16:22;19.10;58.80
30889;DHT22;51092;50.874;7.024;2023-06-14T06:17:24;19.10;58.80
30889;DHT22;51092;50.874;7.024;2023-06-14T06:18:27;19.10;58.70
30889;DHT22;51092;50.874;7.024;2023-06-14T06:19:28;19.20;58.70
30889;DHT22;51092;50.874;7.024;2023-06-14T06:20:30;19.10;58.80
30889;DHT22;51092;50.874;7.024;2023-06-14T06:21:34;19.10;58.70
30889;DHT22;51092;50.874;7.024;2023-06-14T06:22:37;19.10;58.70
30889;DHT22;51092;50.874;7.024;2023-06-14T06:23:38;19.10;58.70
30889;DHT22;51092;50.874;7.024;2023-06-14T06:24:41;19.10;58.70
30889;DHT22;51092;50.874;7.024;2023-06-14T06:25:42;19.10;58.70
30889;DHT22;51092;50.874;7.024;2023-06-14T06:26:45;19.20;58.60
30889;DHT22;51092;50.874;7.024;2023-06-14T06:27:47;19.30;58.60
30889;DHT22;51092;50.874;7.024;2023-06-14T06:28:49;19.30;58.60
30889;DHT22;51092;50.874;7.024;2023-06-14T06:29:50;19.40;58.60
30889;DHT22;51092;50.874;7.024;2023-06-14T06:30:54;19.40;58.60
30889;DHT22;51092;50.874;7.024;2023-06-14T06:31:56;19.40;58.60
30889;DHT22;51092;50.874;7.024;2023-06-14T06:32:58;19.40;58.60
30889;DHT22;51092;50.874;7.024;2023-06-14T06:34:00;19.40;58.60
30889;DHT22;51092;50.874;7.024;2023-06-14T06:35:02;19.50;58.50
30889;DHT22;51092;50.874;7.024;2023-06-14T06:36:06;19.50;58.50
30889;DHT22;51092;50.874;7.024;2023-06-14T06:37:09;19.50;58.50